Buitenpost, Netherlands
Current Conditions -  °F | °C
As of 3:25 PM on Saturday 22 Nov 2014 (Local Time) from EHLW Reporting Station
Haze Haze  
Wind Chill: 44°   Ceiling: 17000
Heat Index: 48°   Visibility: 6mi
Dew Point: 43°   Wind: 9mph
Humidity: 82%   Direction: 150°SSE
Pressure: 30"   Gusts: NA
Location:  53.25°N, 6.14°E
Report Text: EHLW 221425Z AUTO 15008KT 9000 BR SCT110 OVC170 09/06 Q1016 BLU
Loading
Personal Weather Stations






























Interactive Weather Map New forecast layout! Learn more

10-Day Weather Forecast

Advertisements
Track Severe Weather on mobile